Time;durP1;ratioP1;P1;durP2;ratioP2;P2;SDS_P1;SDS_P2;PMS_P1;PMS_P2;Temp;Humidity;BMP_temperature;BMP_pressure;BME280_temperature;BME280_humidity;BME280_pressure;Samples;Min_cycle;Max_cycle;Signal;HPM_P1;HPM_P2
2022/10/08 00:01:33;;;;;;;18.95;11.55;;;13.40;94.40;;;;;;5021357;28;21808;-65
2022/10/08 00:03:59;;;;;;;16.10;10.75;;;13.30;94.10;;;;;;5022590;28;20026;-64
2022/10/08 00:06:28;;;;;;;21.55;13.23;;;13.20;93.80;;;;;;5021975;28;20492;-64
2022/10/08 00:09:01;;;;;;;18.98;12.35;;;13.20;93.90;;;;;;5017665;28;20076;-64
2022/10/08 00:11:36;;;;;;;19.85;13.93;;;13.10;93.10;;;;;;5026149;28;20453;-65
2022/10/08 00:14:02;;;;;;;19.52;12.52;;;13.00;92.50;;;;;;5020133;28;20057;-65
2022/10/08 00:16:34;;;;;;;21.92;14.40;;;12.90;92.00;;;;;;5026128;28;20094;-65
2022/10/08 00:19:09;;;;;;;19.48;11.75;;;12.70;91.20;;;;;;5025167;28;20026;-64
2022/10/08 00:21:37;;;;;;;20.52;12.20;;;12.60;90.90;;;;;;5020284;28;20025;-64
2022/10/08 00:24:08;;;;;;;18.70;13.35;;;12.50;89.80;;;;;;5031392;28;20028;-65
2022/10/08 00:26:35;;;;;;;17.90;11.45;;;12.40;89.20;;;;;;5026646;28;20038;-65
2022/10/08 00:29:04;;;;;;;17.92;10.88;;;12.30;88.40;;;;;;5019563;28;20434;-64
2022/10/08 00:31:32;;;;;;;16.15;10.70;;;12.30;87.80;;;;;;5023343;28;20117;-65
2022/10/08 00:34:00;;;;;;;18.73;10.98;;;12.20;87.40;;;;;;5025811;28;20025;-64
2022/10/08 00:36:30;;;;;;;14.93;8.80;;;12.20;86.30;;;;;;5022177;28;20140;-65
2022/10/08 00:39:01;;;;;;;17.10;10.38;;;12.20;84.70;;;;;;5028527;28;20036;-65
2022/10/08 00:41:29;;;;;;;15.30;10.90;;;12.20;85.20;;;;;;5024950;28;20057;-64
2022/10/08 00:43:57;;;;;;;17.83;10.52;;;12.20;85.10;;;;;;5024725;28;20033;-65
2022/10/08 00:46:35;;;;;;;13.55;8.88;;;12.20;84.60;;;;;;5025540;28;20025;-65
2022/10/08 00:49:13;;;;;;;15.68;8.23;;;12.10;84.20;;;;;;5028642;28;20037;-65
2022/10/08 00:51:53;;;;;;;17.20;11.48;;;12.10;84.10;;;;;;5019283;28;20288;-64
2022/10/08 00:54:20;;;;;;;15.75;9.13;;;12.00;85.40;;;;;;5033380;28;20041;-64
2022/10/08 00:56:51;;;;;;;18.88;11.32;;;12.00;84.20;;;;;;5030715;28;20021;-65
2022/10/08 00:59:17;;;;;;;19.42;12.85;;;12.00;83.70;;;;;;5028181;28;20022;-64
2022/10/08 01:01:43;;;;;;;21.15;13.93;;;12.00;83.60;;;;;;5032377;28;20048;-65
2022/10/08 01:04:11;;;;;;;17.13;9.27;;;12.00;83.30;;;;;;5030069;28;20450;-65
2022/10/08 01:07:10;;;;;;;17.98;13.00;;;12.10;82.30;;;;;;5027239;28;20021;-64
2022/10/08 01:10:02;;;;;;;24.98;14.10;;;12.10;82.80;;;;;;5037788;28;20063;-64
2022/10/08 01:12:53;;;;;;;16.88;11.55;;;12.10;83.00;;;;;;5031158;28;20419;-64
2022/10/08 01:15:37;;;;;;;19.73;12.60;;;12.00;83.20;;;;;;5028182;28;20040;-64
2022/10/08 01:18:20;;;;;;;;;;;12.00;83.40;;;;;;5032728;28;20025;-65
2022/10/08 01:21:18;;;;;;;15.98;11.50;;;12.00;82.40;;;;;;5051603;28;19913;-66
2022/10/08 01:24:19;;;;;;;17.00;10.50;;;11.90;82.80;;;;;;5020282;28;20042;-65
2022/10/08 01:26:59;;;;;;;16.80;10.82;;;11.80;81.60;;;;;;5047322;28;20025;-65
2022/10/08 01:29:40;;;;;;;18.05;12.05;;;11.80;81.50;;;;;;5034757;28;20120;-65
2022/10/08 01:32:12;;;;;;;15.60;10.35;;;11.80;81.40;;;;;;5026026;28;20056;-65
2022/10/08 01:34:51;;;;;;;21.98;13.20;;;11.90;79.90;;;;;;5036631;28;20437;-65
2022/10/08 01:37:28;;;;;;;22.35;13.20;;;11.90;79.40;;;;;;5025496;28;20044;-66
2022/10/08 01:39:57;;;;;;;18.65;10.35;;;11.90;79.80;;;;;;5033330;28;20334;-66
2022/10/08 01:42:25;;;;;;;15.48;9.52;;;11.90;80.10;;;;;;5032505;28;20851;-65
2022/10/08 01:45:02;;;;;;;18.17;11.40;;;11.90;79.70;;;;;;5042284;28;20115;-65
2022/10/08 01:47:29;;;;;;;17.20;10.68;;;11.90;80.60;;;;;;5030475;28;20117;-65
2022/10/08 01:50:23;;;;;;;18.90;10.98;;;11.90;78.90;;;;;;5031442;28;20033;-65
2022/10/08 01:52:55;;;;;;;17.52;9.73;;;12.00;80.10;;;;;;5030918;28;20122;-65
2022/10/08 01:55:43;;;;;;;18.38;11.25;;;12.00;79.50;;;;;;5036597;28;20402;-65
2022/10/08 01:58:42;;;;;;;14.35;10.20;;;12.10;79.90;;;;;;5032590;28;20037;-66
2022/10/08 02:01:17;;;;;;;15.45;10.30;;;12.10;81.00;;;;;;5025959;28;20038;-66
2022/10/08 02:04:31;;;;;;;15.40;9.23;;;12.10;81.20;;;;;;5028926;28;20044;-66
2022/10/08 02:06:32;;;;;;;18.27;8.95;;;12.10;80.50;;;;;;5021743;28;21297;-66
2022/10/08 02:09:01;;;;;;;18.42;10.27;;;12.30;80.40;;;;;;5031869;28;20356;-66
2022/10/08 02:11:29;;;;;;;17.85;8.85;;;12.20;82.80;;;;;;5033081;28;20434;-66
2022/10/08 02:13:55;;;;;;;17.40;8.70;;;12.20;82.80;;;;;;5024516;28;20030;-66
2022/10/08 02:16:28;;;;;;;16.52;8.60;;;12.20;83.10;;;;;;5030592;28;20036;-65
2022/10/08 02:19:18;;;;;;;16.70;8.65;;;12.20;82.40;;;;;;5025728;28;21722;-65
2022/10/08 02:21:44;;;;;;;15.45;9.75;;;12.30;82.80;;;;;;5032728;28;20049;-65
2022/10/08 02:24:25;;;;;;;17.95;9.88;;;12.20;83.80;;;;;;5033207;28;20021;-66
2022/10/08 02:26:56;;;;;;;14.95;8.65;;;12.20;83.70;;;;;;5030708;28;20415;-65
2022/10/08 02:29:36;;;;;;;18.38;8.13;;;12.30;83.10;;;;;;5035720;28;20021;-65
2022/10/08 02:32:12;;;;;;;20.05;9.15;;;12.20;83.30;;;;;;5031171;28;20029;-66
2022/10/08 02:34:44;;;;;;;17.63;9.18;;;12.30;83.10;;;;;;5034293;28;21225;-66
2022/10/08 02:37:17;;;;;;;19.58;9.73;;;12.30;84.00;;;;;;5032258;28;20096;-65
2022/10/08 02:39:50;;;;;;;15.65;8.38;;;12.30;84.00;;;;;;5028139;28;20044;-65
2022/10/08 02:42:21;;;;;;;19.33;7.43;;;12.30;83.80;;;;;;5028216;28;20037;-64
2022/10/08 02:44:58;;;;;;;19.50;8.48;;;12.40;83.10;;;;;;5037490;28;20052;-64
2022/10/08 02:47:32;;;;;;;16.73;9.02;;;12.50;85.10;;;;;;5031783;28;20039;-65
2022/10/08 02:50:03;;;;;;;16.70;7.95;;;12.40;86.30;;;;;;5029757;28;20079;-66
2022/10/08 02:52:35;;;;;;;14.00;8.18;;;12.40;85.90;;;;;;5030600;28;20034;-67
2022/10/08 02:55:10;;;;;;;16.55;7.68;;;12.40;85.30;;;;;;5025528;28;20022;-65
2022/10/08 02:57:43;;;;;;;21.20;7.47;;;12.40;85.80;;;;;;5032330;28;20109;-65
2022/10/08 03:00:10;;;;;;;16.33;8.27;;;12.40;85.10;;;;;;5033541;28;20086;-66
2022/10/08 03:02:45;;;;;;;14.48;7.10;;;12.50;86.30;;;;;;5027106;28;20429;-65
2022/10/08 03:05:16;;;;;;;16.33;7.85;;;12.50;86.60;;;;;;5030332;28;20059;-66
2022/10/08 03:07:43;;;;;;;23.42;7.18;;;12.50;87.70;;;;;;5029920;28;20037;-66
2022/10/08 03:10:09;;;;;;;20.30;9.60;;;12.50;87.40;;;;;;5028109;28;20105;-66
2022/10/08 03:12:35;;;;;;;15.73;8.02;;;12.50;87.90;;;;;;5034435;28;20068;-65
2022/10/08 03:15:00;;;;;;;17.48;7.88;;;12.40;87.80;;;;;;5027899;28;20045;-65
2022/10/08 03:17:39;;;;;;;17.83;7.10;;;12.50;87.00;;;;;;5032653;28;20033;-65
2022/10/08 03:20:07;;;;;;;16.77;6.88;;;12.50;87.90;;;;;;5027015;28;20018;-66
2022/10/08 03:22:33;;;;;;;18.48;7.13;;;12.50;88.10;;;;;;5031604;28;20075;-66
2022/10/08 03:25:02;;;;;;;15.30;5.28;;;12.60;89.00;;;;;;5027227;28;20096;-66
2022/10/08 03:27:27;;;;;;;17.20;5.72;;;12.60;89.20;;;;;;5029556;28;20022;-65
2022/10/08 03:29:56;;;;;;;19.70;5.70;;;12.80;90.40;;;;;;5035126;28;20031;-65
2022/10/08 03:32:25;;;;;;;19.30;5.82;;;12.90;91.80;;;;;;5033797;28;20108;-63
2022/10/08 03:34:51;;;;;;;16.65;5.90;;;13.00;93.20;;;;;;5026466;28;20033;-64
2022/10/08 03:37:17;;;;;;;14.18;5.10;;;13.10;94.30;;;;;;5032698;28;20053;-65
2022/10/08 03:39:43;;;;;;;16.25;5.20;;;13.20;95.10;;;;;;5031204;28;20056;-65
2022/10/08 03:42:09;;;;;;;18.73;6.25;;;13.30;95.80;;;;;;5032376;28;20426;-65
2022/10/08 03:44:34;;;;;;;18.90;4.80;;;13.50;97.10;;;;;;5033272;28;20034;-65
2022/10/08 03:47:00;;;;;;;18.73;5.75;;;13.60;97.70;;;;;;5024913;28;20030;-64
2022/10/08 03:49:26;;;;;;;21.60;5.32;;;13.60;97.80;;;;;;5032268;28;20446;-65
2022/10/08 03:51:51;;;;;;;22.27;5.72;;;13.80;98.00;;;;;;5027385;28;20040;-65
2022/10/08 03:54:17;;;;;;;19.38;5.15;;;14.00;98.00;;;;;;5032467;28;20036;-65
2022/10/08 03:56:43;;;;;;;18.83;5.72;;;14.20;98.00;;;;;;5034508;28;20414;-65
2022/10/08 03:59:08;;;;;;;17.88;5.03;;;14.10;98.00;;;;;;5026719;28;20369;-65
2022/10/08 04:01:34;;;;;;;18.20;5.05;;;14.10;98.00;;;;;;5028279;28;20374;-65
2022/10/08 04:04:00;;;;;;;19.00;5.10;;;14.10;98.00;;;;;;5019190;28;20049;-65
2022/10/08 04:06:25;;;;;;;15.10;4.60;;;14.10;98.00;;;;;;5023879;28;20029;-65
2022/10/08 04:08:52;;;;;;;18.48;5.32;;;14.20;98.00;;;;;;5026565;28;20119;-65
2022/10/08 04:11:18;;;;;;;22.35;5.35;;;14.20;98.00;;;;;;5028647;28;20033;-65
2022/10/08 04:13:44;;;;;;;16.40;5.22;;;14.30;98.00;;;;;;5032905;28;20032;-65
2022/10/08 04:16:12;;;;;;;15.93;5.03;;;14.30;98.00;;;;;;5031082;28;20419;-65
2022/10/08 04:18:38;;;;;;;15.90;5.30;;;14.30;98.00;;;;;;5024997;28;20037;-64
2022/10/08 04:21:06;;;;;;;32.13;15.98;;;14.30;98.00;;;;;;5029073;28;20037;-65
2022/10/08 04:23:34;;;;;;;13.90;4.70;;;14.20;98.00;;;;;;5023611;28;20037;-65
2022/10/08 04:25:59;;;;;;;14.75;4.82;;;14.20;98.00;;;;;;5029979;28;20069;-65
2022/10/08 04:28:26;;;;;;;15.23;5.03;;;14.10;98.00;;;;;;5028815;28;21298;-65
2022/10/08 04:30:58;;;;;;;16.60;4.38;;;14.00;98.00;;;;;;5029262;28;20042;-64
2022/10/08 04:33:25;;;;;;;19.80;4.60;;;13.90;98.00;;;;;;5029218;28;20104;-65
2022/10/08 04:35:51;;;;;;;15.48;4.80;;;13.90;98.00;;;;;;5024953;28;20028;-65
2022/10/08 04:38:17;;;;;;;18.88;4.95;;;13.90;98.00;;;;;;5032772;28;20045;-65
2022/10/08 04:40:42;;;;;;;16.95;4.55;;;13.90;98.00;;;;;;5026281;28;20076;-65
2022/10/08 04:43:08;;;;;;;16.25;4.93;;;13.90;98.00;;;;;;5024403;28;20060;-65
2022/10/08 04:45:34;;;;;;;14.00;4.80;;;13.80;98.00;;;;;;5030894;28;20025;-65
2022/10/08 04:47:59;;;;;;;19.90;4.90;;;13.80;98.00;;;;;;5029196;28;20052;-65
2022/10/08 04:50:25;;;;;;;13.57;4.88;;;13.70;98.00;;;;;;5024636;28;20036;-65
2022/10/08 04:52:50;;;;;;;13.63;4.63;;;13.60;98.00;;;;;;5030754;28;20327;-65
2022/10/08 04:55:16;;;;;;;15.95;5.53;;;13.50;97.60;;;;;;5022422;28;20026;-65
2022/10/08 04:57:42;;;;;;;14.98;5.68;;;13.40;97.40;;;;;;5033623;28;20033;-65
2022/10/08 05:00:08;;;;;;;17.75;5.15;;;13.30;97.00;;;;;;5032410;28;20037;-65
2022/10/08 05:02:34;;;;;;;30.83;20.35;;;13.20;96.70;;;;;;5028124;28;20034;-65
2022/10/08 05:04:59;;;;;;;25.60;16.55;;;13.00;96.10;;;;;;5032035;28;20087;-65
2022/10/08 05:07:28;;;;;;;31.80;20.73;;;12.80;95.20;;;;;;5030985;28;20114;-65
2022/10/08 05:09:53;;;;;;;29.75;21.80;;;12.70;94.50;;;;;;5022651;28;20337;-65
2022/10/08 05:12:19;;;;;;;21.40;11.15;;;12.50;93.80;;;;;;5031749;28;20022;-65
2022/10/08 05:14:44;;;;;;;21.90;9.18;;;12.40;93.10;;;;;;5026129;28;20029;-65
2022/10/08 05:17:10;;;;;;;17.27;6.32;;;12.40;92.60;;;;;;5026578;28;20037;-65
2022/10/08 05:19:39;;;;;;;19.73;8.30;;;12.30;91.80;;;;;;5030270;28;20303;-65
2022/10/08 05:22:04;;;;;;;21.35;12.65;;;12.30;91.30;;;;;;5027001;28;20030;-65
2022/10/08 05:24:30;;;;;;;20.65;12.32;;;12.10;91.70;;;;;;5030932;28;20025;-65
2022/10/08 05:26:56;;;;;;;26.30;10.38;;;12.00;91.00;;;;;;5033085;28;20117;-65
2022/10/08 05:29:21;;;;;;;24.65;15.32;;;11.90;90.00;;;;;;5033609;28;20115;-65
2022/10/08 05:31:47;;;;;;;24.30;14.38;;;11.70;89.80;;;;;;5037508;28;20018;-64
2022/10/08 05:34:14;;;;;;;26.38;13.65;;;11.70;88.10;;;;;;5027666;28;20485;-64
2022/10/08 05:36:39;;;;;;;23.50;11.63;;;11.90;87.30;;;;;;5032119;28;20127;-64
2022/10/08 05:39:06;;;;;;;19.33;11.30;;;11.90;86.90;;;;;;5025830;28;20029;-64
2022/10/08 05:41:34;;;;;;;18.83;10.38;;;12.00;87.00;;;;;;5032874;28;20029;-64
2022/10/08 05:44:03;;;;;;;20.33;10.00;;;12.00;87.80;;;;;;5028703;28;20440;-65
2022/10/08 05:46:31;;;;;;;21.38;8.88;;;12.00;87.40;;;;;;5029953;28;20406;-65
2022/10/08 05:48:59;;;;;;;19.83;8.85;;;12.20;86.80;;;;;;5035214;28;20096;-65
2022/10/08 05:51:25;;;;;;;16.80;8.02;;;12.30;87.90;;;;;;5034676;28;20013;-65
2022/10/08 05:53:56;;;;;;;14.85;8.10;;;12.50;88.30;;;;;;5023812;28;20134;-65
2022/10/08 05:56:23;;;;;;;17.63;8.38;;;12.60;89.40;;;;;;5033860;28;20028;-65
2022/10/08 05:58:50;;;;;;;19.80;8.80;;;12.70;90.40;;;;;;5032542;28;20045;-65
2022/10/08 06:01:21;;;;;;;18.55;7.40;;;12.70;91.30;;;;;;5032846;28;20040;-64
2022/10/08 06:03:51;;;;;;;14.70;7.05;;;12.80;91.40;;;;;;5032940;28;20037;-65
2022/10/08 06:06:16;;;;;;;20.60;9.88;;;12.90;92.50;;;;;;5028815;28;20025;-65
2022/10/08 06:08:42;;;;;;;18.02;7.85;;;12.90;93.10;;;;;;5031953;28;20030;-65
2022/10/08 06:11:08;;;;;;;20.00;7.60;;;12.90;92.80;;;;;;5026412;28;20025;-64
2022/10/08 06:13:34;;;;;;;14.25;6.78;;;13.00;93.30;;;;;;5033219;28;20053;-65
2022/10/08 06:16:09;;;;;;;12.27;6.10;;;13.10;93.40;;;;;;5024628;28;20034;-65
2022/10/08 06:18:39;;;;;;;17.15;6.82;;;13.30;94.60;;;;;;5026151;28;20558;-65
2022/10/08 06:21:25;;;;;;;17.40;6.60;;;13.30;94.80;;;;;;5032070;28;20128;-65
2022/10/08 06:23:57;;;;;;;17.40;6.88;;;13.50;96.00;;;;;;5024121;28;20033;-65
2022/10/08 06:26:25;;;;;;;16.65;7.80;;;13.60;96.20;;;;;;5030832;28;20080;-65
2022/10/08 06:28:52;;;;;;;17.10;7.28;;;13.60;96.60;;;;;;5023776;28;20083;-65
2022/10/08 06:31:19;;;;;;;16.13;6.35;;;13.60;96.40;;;;;;5029364;28;20036;-66
2022/10/08 06:33:45;;;;;;;18.65;7.32;;;13.70;96.40;;;;;;5028373;28;20134;-65
2022/10/08 06:36:22;;;;;;;15.90;7.80;;;13.70;96.60;;;;;;5024770;28;20092;-65
2022/10/08 06:39:12;;;;;;;15.68;7.57;;;13.70;96.60;;;;;;5029591;28;20296;-64
2022/10/08 06:41:38;;;;;;;13.07;7.35;;;13.80;96.70;;;;;;5031924;28;20029;-65
2022/10/08 06:44:07;;;;;;;20.73;10.07;;;13.80;97.00;;;;;;5025485;28;20555;-65
2022/10/08 06:46:33;;;;;;;21.17;9.70;;;13.90;97.60;;;;;;5025863;28;20037;-65
2022/10/08 06:49:00;;;;;;;14.82;8.88;;;13.90;97.30;;;;;;5032921;28;20021;-65
2022/10/08 06:51:26;;;;;;;19.42;8.38;;;13.90;97.50;;;;;;5020961;28;20315;-65
2022/10/08 06:53:55;;;;;;;27.98;9.35;;;13.90;97.10;;;;;;5029215;28;20033;-65
2022/10/08 06:56:22;;;;;;;23.58;9.95;;;14.00;97.50;;;;;;5026508;28;20658;-64
2022/10/08 06:58:48;;;;;;;18.80;8.98;;;14.10;97.60;;;;;;5030861;28;20095;-64
2022/10/08 07:01:18;;;;;;;19.98;8.65;;;14.10;97.70;;;;;;5035394;28;20087;-64
2022/10/08 07:03:49;;;;;;;24.38;9.15;;;14.20;98.00;;;;;;5026876;28;20021;-64
2022/10/08 07:06:15;;;;;;;16.45;8.60;;;14.20;97.90;;;;;;5033044;28;20049;-65
2022/10/08 07:08:40;;;;;;;18.98;8.65;;;14.30;98.00;;;;;;5030778;28;20107;-65
2022/10/08 07:11:09;;;;;;;17.38;8.48;;;14.30;98.00;;;;;;5027313;28;20025;-64
2022/10/08 07:13:35;;;;;;;15.65;7.55;;;14.20;97.80;;;;;;5024103;28;20022;-64
2022/10/08 07:16:02;;;;;;;23.25;8.43;;;14.30;97.90;;;;;;5028299;28;20426;-64
2022/10/08 07:18:28;;;;;;;16.77;7.88;;;14.30;97.90;;;;;;5032783;28;20757;-64
2022/10/08 07:20:55;;;;;;;19.27;7.80;;;14.30;98.00;;;;;;5021940;28;20586;-65
2022/10/08 07:23:20;;;;;;;24.75;8.77;;;14.30;98.00;;;;;;5015876;28;20029;-64
2022/10/08 07:26:04;;;;;;;17.33;7.95;;;14.20;97.70;;;;;;5008376;28;20025;-65
2022/10/08 07:28:33;;;;;;;16.38;7.97;;;14.20;97.70;;;;;;5011517;28;20061;-64
2022/10/08 07:31:07;;;;;;;17.58;8.15;;;14.20;97.70;;;;;;5010952;28;20029;-64
2022/10/08 07:33:33;;;;;;;21.50;8.48;;;14.20;97.30;;;;;;5011266;28;20056;-65
2022/10/08 07:36:13;;;;;;;18.65;8.25;;;14.30;98.00;;;;;;5010306;28;20029;-65
2022/10/08 07:38:40;;;;;;;18.85;9.00;;;14.40;98.00;;;;;;5008358;28;20844;-64
2022/10/08 07:41:07;;;;;;;14.48;8.00;;;14.40;98.00;;;;;;5009554;28;20021;-64
2022/10/08 07:43:33;;;;;;;16.85;7.70;;;14.50;98.00;;;;;;5009857;28;20119;-64
2022/10/08 07:45:59;;;;;;;17.55;8.43;;;14.60;98.00;;;;;;5009346;28;20055;-65
2022/10/08 07:48:26;;;;;;;16.80;8.82;;;14.60;98.00;;;;;;5011841;28;20470;-64
2022/10/08 07:50:51;;;;;;;15.80;8.77;;;14.60;98.00;;;;;;5011497;28;20029;-64
2022/10/08 07:53:17;;;;;;;17.45;9.40;;;14.50;98.00;;;;;;5026066;28;20415;-65
2022/10/08 07:55:43;;;;;;;17.20;8.93;;;14.40;98.00;;;;;;5029506;28;20025;-64
2022/10/08 07:58:09;;;;;;;20.65;10.07;;;14.40;97.80;;;;;;5006197;28;20033;-64
2022/10/08 08:00:37;;;;;;;21.52;10.10;;;14.50;97.70;;;;;;5014734;28;20021;-65
2022/10/08 08:03:03;;;;;;;23.10;9.90;;;14.70;98.00;;;;;;5016624;28;20033;-65
2022/10/08 08:05:33;;;;;;;20.75;10.60;;;14.80;98.00;;;;;;5032868;28;20322;-64
2022/10/08 08:07:59;;;;;;;22.40;9.85;;;14.80;98.00;;;;;;5029307;28;20029;-65
2022/10/08 08:10:24;;;;;;;22.98;9.05;;;14.80;98.00;;;;;;5029229;28;20021;-64
2022/10/08 08:12:50;;;;;;;20.50;9.15;;;14.90;98.00;;;;;;5008019;28;20438;-64
2022/10/08 08:15:15;;;;;;;15.55;8.63;;;15.00;98.00;;;;;;5009875;28;20928;-65
2022/10/08 08:17:41;;;;;;;18.55;9.50;;;15.00;98.00;;;;;;5012963;28;20040;-65
2022/10/08 08:20:07;;;;;;;28.15;12.57;;;15.10;98.00;;;;;;5011181;28;20435;-64
2022/10/08 08:22:33;;;;;;;21.95;9.45;;;15.10;98.00;;;;;;5010683;28;20192;-65
2022/10/08 08:24:58;;;;;;;18.33;9.30;;;15.10;98.00;;;;;;5006382;28;20034;-65
2022/10/08 08:27:24;;;;;;;18.58;8.88;;;15.10;98.00;;;;;;5009390;28;20076;-64
2022/10/08 08:29:50;;;;;;;18.00;9.13;;;15.20;98.00;;;;;;5007557;28;20025;-63
2022/10/08 08:32:15;;;;;;;17.70;8.95;;;15.20;98.00;;;;;;5011096;28;20049;-64
2022/10/08 08:34:41;;;;;;;20.38;9.52;;;15.40;98.00;;;;;;5006345;28;20153;-63
2022/10/08 08:37:07;;;;;;;20.73;9.48;;;15.50;98.00;;;;;;5011112;28;20049;-65
2022/10/08 08:39:32;;;;;;;16.60;7.30;;;15.70;98.00;;;;;;5014217;28;20064;-63
2022/10/08 08:42:26;;;;;;;18.45;8.43;;;15.70;98.00;;;;;;5014062;28;20049;-64
2022/10/08 08:45:01;;;;;;;19.80;9.00;;;15.80;98.00;;;;;;5011493;28;20434;-65
2022/10/08 08:47:40;;;;;;;19.27;8.23;;;15.70;98.00;;;;;;5024466;28;20365;-65
2022/10/08 08:50:26;;;;;;;16.42;8.38;;;15.40;98.00;;;;;;5023204;28;20345;-63
2022/10/08 08:52:53;;;;;;;19.20;8.50;;;15.30;98.00;;;;;;5012372;28;20030;-62
2022/10/08 08:55:50;;;;;;;20.23;9.68;;;15.30;98.00;;;;;;5014171;28;20025;-63
2022/10/08 08:58:33;;;;;;;24.67;10.38;;;15.00;98.00;;;;;;4995703;28;20041;-64
2022/10/08 09:01:13;;;;;;;21.25;10.77;;;14.90;98.00;;;;;;5015109;28;20041;-63
2022/10/08 09:03:48;;;;;;;21.38;12.63;;;14.60;98.00;;;;;;5006861;28;20033;-63
2022/10/08 09:06:18;;;;;;;21.35;12.23;;;14.40;97.90;;;;;;5012472;28;20525;-65
2022/10/08 09:09:21;;;;;;;24.02;12.02;;;14.20;97.00;;;;;;5012969;28;20042;-65
2022/10/08 09:11:53;;;;;;;17.83;10.35;;;14.20;97.10;;;;;;5012147;28;20065;-65
2022/10/08 09:14:41;;;;;;;18.30;9.20;;;14.20;96.80;;;;;;5010178;28;20374;-65
2022/10/08 09:17:21;;;;;;;15.93;9.93;;;14.60;98.00;;;;;;5011652;28;20056;-65
2022/10/08 09:19:48;;;;;;;19.95;9.27;;;15.10;98.00;;;;;;5015879;28;20045;-64
2022/10/08 09:22:26;;;;;;;14.82;8.02;;;15.40;98.00;;;;;;5004293;28;20461;-65
2022/10/08 09:25:31;;;;;;;17.95;8.45;;;15.40;98.00;;;;;;5010398;28;20928;-66
2022/10/08 09:27:59;;;;;;;;;;;15.60;98.00;;;;;;4977191;28;20066;-65
2022/10/08 09:30:29;;;;;;;17.50;8.95;;;15.50;98.00;;;;;;5006448;28;21735;-65
2022/10/08 09:32:58;;;;;;;15.35;8.95;;;15.50;98.00;;;;;;5012302;28;20614;-64
2022/10/08 09:35:25;;;;;;;19.98;8.27;;;15.50;98.00;;;;;;5014044;28;21050;-66
2022/10/08 09:37:55;;;;;;;14.88;7.25;;;15.70;98.00;;;;;;5012511;28;20643;-65
2022/10/08 09:40:26;;;;;;;16.60;7.15;;;15.70;98.00;;;;;;5010197;28;20029;-65
2022/10/08 09:43:12;;;;;;;16.10;8.05;;;16.00;97.70;;;;;;5012777;28;20037;-65
2022/10/08 09:45:45;;;;;;;12.98;7.20;;;16.30;97.50;;;;;;5015100;28;20497;-66
2022/10/08 09:48:27;;;;;;;15.35;7.38;;;16.60;96.80;;;;;;5011445;28;20429;-64
2022/10/08 09:50:58;;;;;;;13.73;7.60;;;16.70;95.70;;;;;;5011640;28;20053;-64
2022/10/08 09:53:30;;;;;;;14.25;6.18;;;16.60;95.90;;;;;;5035783;28;20030;-64
2022/10/08 09:56:05;;;;;;;13.73;7.18;;;16.50;95.60;;;;;;5036398;28;20061;-64
2022/10/08 09:58:55;;;;;;;17.45;6.50;;;16.50;95.40;;;;;;5024607;28;20033;-64
2022/10/08 10:01:24;;;;;;;14.05;6.60;;;16.40;95.60;;;;;;5018715;28;20501;-64
2022/10/08 10:03:56;;;;;;;22.15;7.50;;;16.20;95.80;;;;;;5012674;28;20030;-64
2022/10/08 10:06:32;;;;;;;16.42;6.80;;;15.70;96.80;;;;;;5008650;28;20030;-65
2022/10/08 10:09:20;;;;;;;14.70;6.45;;;15.60;97.50;;;;;;5017367;28;20033;-65
2022/10/08 10:12:14;;;;;;;14.05;5.93;;;15.60;97.80;;;;;;5006123;28;20029;-65
2022/10/08 10:14:52;;;;;;;16.52;6.35;;;15.50;97.30;;;;;;5008283;28;20034;-65
2022/10/08 10:17:48;;;;;;;15.68;5.93;;;15.80;97.10;;;;;;5014875;28;20427;-64
2022/10/08 10:20:57;;;;;;;15.85;6.82;;;16.00;95.80;;;;;;5009794;28;20044;-64
2022/10/08 10:23:39;;;;;;;14.68;6.13;;;15.90;95.30;;;;;;5011256;28;20046;-64
2022/10/08 10:26:30;;;;;;;12.90;5.57;;;16.00;95.50;;;;;;5015151;28;20087;-63
2022/10/08 10:29:01;;;;;;;10.90;4.85;;;16.30;95.20;;;;;;5012874;28;20113;-63
2022/10/08 10:31:38;;;;;;;15.75;6.35;;;16.60;93.50;;;;;;5012906;28;20030;-64
2022/10/08 10:34:31;;;;;;;14.50;4.70;;;16.80;93.10;;;;;;5011278;28;20121;-64
2022/10/08 10:37:12;;;;;;;8.98;3.97;;;17.10;91.40;;;;;;5009268;28;20065;-64
2022/10/08 10:39:44;;;;;;;10.10;4.70;;;17.20;90.40;;;;;;5008507;28;20033;-64
2022/10/08 10:42:38;;;;;;;12.30;4.32;;;17.30;90.30;;;;;;5028108;28;20083;-63
2022/10/08 10:45:13;;;;;;;13.87;4.33;;;17.30;90.00;;;;;;5011540;28;20041;-63
2022/10/08 10:47:39;;;;;;;11.05;4.30;;;17.10;90.60;;;;;;5020033;28;20080;-64
2022/10/08 10:50:12;;;;;;;16.80;4.32;;;17.10;90.80;;;;;;5013062;28;20303;-64
2022/10/08 10:52:56;;;;;;;11.82;5.03;;;17.20;90.10;;;;;;5012479;28;20030;-64
2022/10/08 10:56:04;;;;;;;14.07;5.20;;;16.80;90.80;;;;;;5018511;28;20033;-63
2022/10/08 10:59:02;;;;;;;11.55;4.40;;;16.70;92.10;;;;;;5014419;28;20040;-63
2022/10/08 11:01:41;;;;;;;13.63;4.07;;;16.90;91.60;;;;;;5009765;28;20033;-63
2022/10/08 11:04:21;;;;;;;11.73;4.13;;;17.30;90.50;;;;;;5007811;28;20030;-64
2022/10/08 11:07:04;;;;;;;12.10;4.20;;;17.30;89.70;;;;;;5012340;28;20621;-65
2022/10/08 11:10:01;;;;;;;11.35;4.63;;;17.50;90.10;;;;;;5011070;28;20030;-65
2022/10/08 11:13:09;;;;;;;13.40;6.13;;;17.60;89.30;;;;;;5011033;28;20034;-64
2022/10/08 11:15:51;;;;;;;9.05;4.70;;;17.30;89.50;;;;;;5009888;28;20033;-64
2022/10/08 11:18:24;;;;;;;10.05;3.97;;;17.20;90.50;;;;;;5008645;28;20030;-64
2022/10/08 11:21:02;;;;;;;11.45;3.67;;;17.30;89.80;;;;;;5003713;28;20032;-64
2022/10/08 11:23:46;;;;;;;11.43;4.05;;;17.20;89.50;;;;;;4998091;28;20675;-63
2022/10/08 11:26:38;;;;;;;15.00;5.05;;;17.20;89.70;;;;;;4999903;28;20711;-63
2022/10/08 11:29:30;;;;;;;8.73;4.00;;;17.60;89.80;;;;;;4989349;28;20030;-63
2022/10/08 11:32:00;;;;;;;10.57;3.70;;;18.40;87.50;;;;;;5007115;28;20028;-63
2022/10/08 11:34:34;;;;;;;7.50;3.00;;;18.60;86.60;;;;;;5001158;28;20033;-64
2022/10/08 11:37:26;;;;;;;15.82;5.25;;;18.70;86.90;;;;;;5008644;28;20509;-64
2022/10/08 11:40:25;;;;;;;16.20;6.10;;;18.30;85.60;;;;;;5003775;28;20076;-64
2022/10/08 11:43:24;;;;;;;10.93;3.97;;;17.70;86.80;;;;;;5000399;28;20563;-64
2022/10/08 11:46:18;;;;;;;10.50;3.40;;;17.40;87.50;;;;;;5000787;28;20037;-63
2022/10/08 11:48:44;;;;;;;7.38;2.85;;;17.20;88.70;;;;;;5004231;28;20037;-64
2022/10/08 11:51:19;;;;;;;9.40;3.58;;;16.90;89.30;;;;;;5010303;28;20135;-64
2022/10/08 11:54:09;;;;;;;8.68;3.20;;;16.80;89.40;;;;;;5002133;28;20112;-63
2022/10/08 11:56:47;;;;;;;14.38;3.83;;;17.10;88.70;;;;;;5009898;28;20034;-64
2022/10/08 11:59:38;;;;;;;8.63;2.58;;;17.20;88.60;;;;;;5007368;28;20033;-64
2022/10/08 12:02:30;;;;;;;10.25;3.15;;;17.30;87.90;;;;;;5001155;28;20029;-64
2022/10/08 12:04:59;;;;;;;9.18;2.83;;;17.50;86.50;;;;;;5004310;28;20079;-63
2022/10/08 12:07:34;;;;;;;7.80;2.67;;;17.30;86.70;;;;;;5002661;28;20033;-64
2022/10/08 12:10:06;;;;;;;7.65;2.88;;;17.10;87.20;;;;;;4992470;28;20082;-64
2022/10/08 12:13:08;;;;;;;9.75;2.95;;;17.50;87.70;;;;;;5019911;28;20044;-65
2022/10/08 12:15:39;;;;;;;8.50;3.03;;;18.50;84.70;;;;;;4937576;28;20035;-64
2022/10/08 12:18:21;;;;;;;7.93;2.40;;;18.60;82.30;;;;;;4989724;28;20335;-65
2022/10/08 12:21:16;;;;;;;8.02;2.70;;;18.30;83.50;;;;;;5003179;28;20037;-64
2022/10/08 12:23:45;;;;;;;9.85;2.95;;;18.30;84.70;;;;;;5001215;28;20113;-64
2022/10/08 12:26:14;;;;;;;10.63;3.00;;;18.70;83.10;;;;;;4977707;28;20386;-64
2022/10/08 12:28:49;;;;;;;10.40;2.80;;;19.00;81.60;;;;;;5011854;28;20029;-64
2022/10/08 12:31:20;;;;;;;6.60;2.67;;;19.40;81.10;;;;;;5007306;28;20028;-64
2022/10/08 12:34:17;;;;;;;8.98;3.28;;;19.90;79.30;;;;;;5008379;28;20895;-64
2022/10/08 12:37:08;;;;;;;7.85;2.53;;;19.60;77.70;;;;;;5009894;28;20132;-64
2022/10/08 12:39:38;;;;;;;6.57;2.47;;;19.50;79.70;;;;;;5009436;28;20619;-65
2022/10/08 12:42:34;;;;;;;8.63;2.50;;;20.20;78.10;;;;;;5005577;28;20045;-66
2022/10/08 12:45:35;;;;;;;7.45;2.30;;;20.70;74.30;;;;;;5008735;28;20037;-64
2022/10/08 12:48:20;;;;;;;10.18;2.45;;;20.30;73.30;;;;;;5017973;28;20034;-64
2022/10/08 12:51:00;;;;;;;9.38;2.83;;;19.60;74.70;;;;;;5010754;28;20030;-64
2022/10/08 12:53:28;;;;;;;10.63;2.42;;;18.90;78.40;;;;;;5014200;28;20029;-64
2022/10/08 12:55:57;;;;;;;11.25;2.78;;;18.70;81.00;;;;;;5017680;28;20025;-65
2022/10/08 12:58:28;;;;;;;7.57;2.90;;;19.00;78.60;;;;;;5012709;28;20430;-65
2022/10/08 13:01:00;;;;;;;8.07;2.45;;;18.60;78.80;;;;;;5034339;28;20042;-64
2022/10/08 13:03:27;;;;;;;10.10;2.65;;;18.20;80.80;;;;;;5018280;28;20026;-65
2022/10/08 13:05:58;;;;;;;9.60;3.13;;;18.20;81.00;;;;;;5011541;28;20563;-64
2022/10/08 13:08:38;;;;;;;10.93;3.08;;;17.90;81.20;;;;;;5012270;28;20025;-64